»·PEaware :: UAL314 KLAX-KDEN

UAL314 :: KLAX-KDEN

FLIGHT INFORMATION

Flight Status: Arrived
Operator:
United Airlines
More flights by this operator :: More flights under this callsign
Pilot: Henderson P. (1210)
Aircraft: BOEING 777-200
(B772)
More flights by this aircraft type
Origin: KLAX Los Angeles Intl
United States
Destination: KDEN Denver Intl
United States
More flights between these airports :: More routes between these airports
Route: ORCKA3 LAS J146 DVC WOLLF CREDE3
File this flight plan on PilotEdge
Remarks:
Altitude:
(Current/Filed)
39,000ft
Speed:
(Current/Filed)
483kts
Departed: 08-Sep-18 12:48 PM
Arrived: 08-Sep-18 02:43 PM
Distance/Time
Traveled:
747nm/1:55
Distance/Time
To Go:
Arrived

Flight Plot

Page will automatically refresh every two minutes.

Flight plan parsing failed; only flown route is shown


Map Options




Map Legend


Flown Route
Filed Route
Departure Airport
Arrival Airport
Navaid (VOR, NDB)
Fix

Horizontal Profiles

Position Reports

Time Latitude Longitude Heading Altitude Ground
Speed
08-Sep-18 12:30 33.940214 -118.399975 32 140ft 0kts
08-Sep-18 12:31 33.940214 -118.399975 32 140ft 0kts
08-Sep-18 12:32 33.940214 -118.399975 32 140ft 0kts
08-Sep-18 12:33 33.940214 -118.399975 32 140ft 0kts
08-Sep-18 12:34 33.940214 -118.399975 32 140ft 0kts
08-Sep-18 12:35 33.940214 -118.399975 32 140ft 0kts
08-Sep-18 12:36 33.940214 -118.399975 32 140ft 0kts
08-Sep-18 12:37 33.940214 -118.399975 32 140ft 0kts
08-Sep-18 12:38 33.940214 -118.399975 32 140ft 0kts
08-Sep-18 12:39 33.940214 -118.399975 32 140ft 0kts
08-Sep-18 12:40 33.939899 -118.400270 44 140ft 2kts
08-Sep-18 12:41 33.939516 -118.400824 77 140ft 2kts
08-Sep-18 12:42 33.939466 -118.401214 83 140ft 0kts
08-Sep-18 12:43 33.939466 -118.401214 83 140ft 0kts
08-Sep-18 12:44 33.939543 -118.400445 83 140ft 14kts
08-Sep-18 12:45 33.939962 -118.396208 83 140ft 11kts
08-Sep-18 12:46 33.940369 -118.392303 82 140ft 15kts
08-Sep-18 12:47 33.940887 -118.386478 83 140ft 16kts
08-Sep-18 12:48 33.940592 -118.382203 81 140ft 12kts
08-Sep-18 12:49 33.939779 -118.380833 257 140ft 15kts
08-Sep-18 12:50 33.936077 -118.415748 261 595ft 157kts
08-Sep-18 12:51 33.927965 -118.471211 251 2412ft 201kts
08-Sep-18 12:52 33.902069 -118.548795 248 5445ft 272kts
08-Sep-18 12:53 33.872860 -118.635930 248 9495ft 290kts
08-Sep-18 12:54 33.839258 -118.734964 248 11960ft 358kts
08-Sep-18 12:55 33.790468 -118.846157 227 11995ft 385kts
08-Sep-18 12:56 33.694980 -118.897750 182 12016ft 386kts
08-Sep-18 12:57 33.611054 -118.833763 109 12018ft 382kts
08-Sep-18 12:58 33.622229 -118.719894 63 12023ft 378kts
08-Sep-18 12:59 33.689296 -118.624999 36 12013ft 376kts
08-Sep-18 13:00 33.763938 -118.566735 31 12001ft 376kts
08-Sep-18 13:01 33.844656 -118.504608 32 13390ft 381kts
08-Sep-18 13:02 33.929891 -118.429086 39 16989ft 397kts
08-Sep-18 13:03 33.994536 -118.323383 54 18946ft 414kts
08-Sep-18 13:04 34.053881 -118.219688 52 20773ft 429kts
08-Sep-18 13:05 34.122518 -118.098104 52 23471ft 448kts
08-Sep-18 13:06 34.193374 -117.972737 52 25956ft 467kts
08-Sep-18 13:07 34.267743 -117.840150 53 28427ft 487kts
08-Sep-18 13:08 34.344947 -117.701777 54 30966ft 506kts
08-Sep-18 13:09 34.427208 -117.562776 52 33822ft 504kts
08-Sep-18 13:10 34.509127 -117.425127 52 36221ft 505kts
08-Sep-18 13:11 34.591486 -117.286654 51 38241ft 505kts
08-Sep-18 13:12 34.673456 -117.148155 52 39053ft 505kts
08-Sep-18 13:13 34.755244 -117.009575 52 39020ft 505kts
08-Sep-18 13:14 34.836707 -116.870436 52 38957ft 505kts
08-Sep-18 13:15 34.918362 -116.730670 50 38941ft 504kts
08-Sep-18 13:16 35.012082 -116.604440 43 38961ft 502kts
08-Sep-18 13:17 35.107197 -116.480183 44 38984ft 502kts
08-Sep-18 13:18 35.202291 -116.354610 44 38991ft 503kts
08-Sep-18 13:19 35.297197 -116.228611 44 38992ft 502kts
08-Sep-18 13:20 35.391772 -116.102354 44 38980ft 503kts
08-Sep-18 13:21 35.486359 -115.976035 44 38979ft 503kts
08-Sep-18 13:22 35.580339 -115.849271 44 38974ft 503kts
08-Sep-18 13:23 35.674118 -115.721703 45 38971ft 503kts
08-Sep-18 13:24 35.767313 -115.593030 45 38966ft 503kts
08-Sep-18 13:25 35.860302 -115.464265 45 38971ft 503kts
08-Sep-18 13:26 35.945947 -115.346573 45 38975ft 502kts
08-Sep-18 13:27 36.038772 -115.217016 45 38955ft 503kts
08-Sep-18 13:28 36.110713 -115.068515 69 38927ft 514kts
08-Sep-18 13:29 36.159196 -114.902182 67 38902ft 514kts
08-Sep-18 13:30 36.209759 -114.736980 67 38898ft 512kts
08-Sep-18 13:31 36.259797 -114.571983 67 38926ft 512kts
08-Sep-18 13:32 36.309792 -114.406468 66 38960ft 511kts
08-Sep-18 13:33 36.360063 -114.241694 67 38973ft 511kts
08-Sep-18 13:34 36.409735 -114.076209 67 38985ft 510kts
08-Sep-18 13:35 36.458934 -113.911201 67 38996ft 510kts
08-Sep-18 13:36 36.508116 -113.745267 67 39024ft 511kts
08-Sep-18 13:36 36.549020 -113.607715 67 39053ft 511kts
08-Sep-18 13:37 36.597607 -113.441072 67 39114ft 512kts
08-Sep-18 13:39 36.654133 -113.246335 67 39137ft 512kts
08-Sep-18 13:39 36.694001 -113.107633 68 39157ft 512kts
08-Sep-18 13:40 36.741923 -112.940176 67 39200ft 511kts
08-Sep-18 13:41 36.790415 -112.773268 67 39204ft 511kts
08-Sep-18 13:42 36.837783 -112.606243 68 39217ft 511kts
08-Sep-18 13:43 36.884949 -112.438500 68 39237ft 512kts
08-Sep-18 13:44 36.931982 -112.270466 68 39235ft 512kts
08-Sep-18 13:45 36.978614 -112.102283 68 39197ft 512kts
08-Sep-18 13:46 37.025117 -111.933671 68 39176ft 512kts
08-Sep-18 13:48 37.071956 -111.765758 68 39162ft 511kts
08-Sep-18 13:49 37.118163 -111.597262 68 39141ft 511kts
08-Sep-18 13:50 37.164240 -111.428711 68 39135ft 511kts
08-Sep-18 13:51 37.209674 -111.259764 68 39139ft 511kts
08-Sep-18 13:52 37.254940 -111.090445 69 39148ft 511kts
08-Sep-18 13:53 37.299598 -110.921529 69 39155ft 511kts
08-Sep-18 13:54 37.344625 -110.751852 68 39161ft 511kts
08-Sep-18 13:55 37.389542 -110.582575 69 39162ft 512kts
08-Sep-18 13:56 37.434029 -110.412497 69 39179ft 512kts
08-Sep-18 13:57 37.478304 -110.241965 69 39199ft 513kts
08-Sep-18 13:58 37.522483 -110.070643 69 39220ft 513kts
08-Sep-18 13:59 37.566295 -109.899584 69 39241ft 513kts
08-Sep-18 14:00 37.609858 -109.728333 69 39254ft 512kts
08-Sep-18 14:01 37.653039 -109.557419 69 39268ft 512kts
08-Sep-18 14:02 37.696014 -109.386138 69 39268ft 511kts
08-Sep-18 14:03 37.738995 -109.215175 69 39265ft 510kts
08-Sep-18 14:04 37.781144 -109.043742 70 39265ft 509kts
08-Sep-18 14:05 37.832119 -108.878626 57 39274ft 502kts
08-Sep-18 14:06 37.906528 -108.729380 54 39290ft 501kts
08-Sep-18 14:07 37.979799 -108.579513 54 39294ft 501kts
08-Sep-18 14:08 38.053312 -108.429099 54 39316ft 503kts
08-Sep-18 14:09 38.126380 -108.277804 54 39332ft 502kts
08-Sep-18 14:10 38.198949 -108.126687 54 39328ft 502kts
08-Sep-18 14:11 38.271440 -107.974990 54 39273ft 501kts
08-Sep-18 14:12 38.343976 -107.823254 55 39242ft 502kts
08-Sep-18 14:13 38.416013 -107.670446 54 39233ft 503kts
08-Sep-18 14:14 38.487030 -107.516546 56 39268ft 504kts
08-Sep-18 14:15 38.556240 -107.361189 56 39238ft 504kts
08-Sep-18 14:16 38.625673 -107.205132 56 39295ft 505kts
08-Sep-18 14:17 38.695532 -107.049209 56 39316ft 505kts
08-Sep-18 14:18 38.765082 -106.892735 56 39326ft 505kts
08-Sep-18 14:19 38.834013 -106.735419 56 39374ft 506kts
08-Sep-18 14:20 38.903754 -106.581627 54 37500ft 501kts
08-Sep-18 14:21 38.976159 -106.424982 53 34267ft 507kts
08-Sep-18 14:22 39.046662 -106.271066 54 32091ft 492kts
08-Sep-18 14:23 39.114117 -106.121539 55 30022ft 475kts
08-Sep-18 14:24 39.178639 -105.976200 56 27798ft 460kts
08-Sep-18 14:25 39.240475 -105.835557 57 25754ft 442kts
08-Sep-18 14:26 39.299863 -105.699605 57 23667ft 428kts
08-Sep-18 14:27 39.356935 -105.569400 57 22306ft 398kts
08-Sep-18 14:28 39.410234 -105.450688 53 21215ft 370kts
08-Sep-18 14:29 39.468442 -105.342908 53 19603ft 362kts
08-Sep-18 14:30 39.524441 -105.236239 53 17954ft 354kts
08-Sep-18 14:31 39.575964 -105.138103 53 16431ft 347kts
08-Sep-18 14:32 39.628707 -105.036745 53 15252ft 331kts
08-Sep-18 14:33 39.677047 -104.943654 53 14188ft 317kts
08-Sep-18 14:34 39.729183 -104.854187 28 13109ft 303kts
08-Sep-18 14:35 39.807685 -104.839697 358 12155ft 267kts
08-Sep-18 14:36 39.878517 -104.839552 359 10745ft 250kts
08-Sep-18 14:37 39.942040 -104.839495 358 10507ft 210kts
08-Sep-18 14:38 39.999038 -104.839735 359 10001ft 207kts
08-Sep-18 14:39 40.041300 -104.806572 81 9200ft 204kts
08-Sep-18 14:40 40.033623 -104.734120 99 8508ft 199kts
08-Sep-18 14:41 40.006610 -104.686138 168 7706ft 165kts
08-Sep-18 14:42 39.960232 -104.687091 176 6902ft 170kts
08-Sep-18 14:43 39.914409 -104.686832 175 5848ft 163kts
08-Sep-18 14:44 39.871651 -104.687071 180 5445ft 97kts
08-Sep-18 14:45 39.864342 -104.685990 91 5444ft 0kts
08-Sep-18 14:46 39.863028 -104.685070 179 5444ft 6kts
08-Sep-18 14:47 39.860843 -104.685096 180 5444ft 13kts
08-Sep-18 14:48 39.856903 -104.684404 90 5444ft 10kts
08-Sep-18 14:49 39.857186 -104.679380 33 5444ft 10kts
08-Sep-18 14:50 39.857409 -104.675962 90 5444ft 8kts
08-Sep-18 14:51 39.857385 -104.673146 90 5444ft 6kts
08-Sep-18 14:52 39.858062 -104.672847 0 5444ft 0kts
08-Sep-18 14:53 39.858084 -104.672847 0 5444ft 0kts
08-Sep-18 14:54 39.858084 -104.672847 0 5444ft 0kts
08-Sep-18 14:55 39.858084 -104.672847 0 5444ft 0kts
08-Sep-18 14:56 39.858084 -104.672847 0 5444ft 0kts
08-Sep-18 14:57 39.858084 -104.672847 0 5444ft 0kts
08-Sep-18 14:58 39.858084 -104.672847 0 5444ft 0kts

Navigation Log

Ident Type
Flight plan parsing failed, navigation log unavailable